Fishers, IN (46037)

12:20 AM EST on February 13, 2016 (GMT -0500)
Sunblest | | Change Station
CLOSE
Current Station
Personal Weather Station
Location: Fishers, IN
Elevation: 814 ft
Nearby Weather Stations

Elev 814 ft 39.96 °N, 86.04 °W | Updated 32 seconds ago

Partly Cloudy
Partly Cloudy
15.1 °F
Feels Like 5 °F
N
6.8
Wind Variable Wind from NW

Today
High -- | Low -- °F
--% Chance of Precip.
Yesterday
High -- | Low -- °F
Precip. -- in
Pressure 30.34 in
Visibility 10.0 miles
Clouds Scattered Clouds 4200 ft
Scattered Clouds 5000 ft
Windchill 5 °F
Dew Point 2 °F
Humidity 54%
Rainfall 0.00 in
Snow Depth Not available.
7:39 AM 6:17 PM
Waxing Crescent, 27% visible
METAR KMQJ 130514Z AUTO 32012G17KT 10SM SCT042 SCT050 M09/M17 A3034 RMK AO1
Pressure 30.34 in
Visibility 10.0 miles
Clouds Scattered Clouds 4200 ft
Scattered Clouds 5000 ft
Windchill 5 °F
Dew Point 2 °F
Humidity 54%
Rainfall 0.00 in
Snow Depth Not available.
7:39 AM 6:17 PM
Waxing Crescent, 27% visible
METAR KMQJ 130514Z AUTO 32012G17KT 10SM SCT042 SCT050 M09/M17 A3034 RMK AO1

10-Day Weather Forecast

Almanac

Astronomy

Feb. 13, 2016 Rise Set
Actual Time
Civil Twilight
Nautical Twilight
Astronomical Twilight
Moon
Length of Visible Light
Length of Day
Tomorrow will be .
, % of the Moon is Illuminated

Today's Extremes

State Highs State Lows

Community

WunderPhotos

Upload Photos

1,892,500 photos uploaded!

WunderBlog® & News

Nearby

Air Quality

  Air Quality AQ Index Pollutant
Not available.

Snow Depth

Station Depth Elevation

Earthquake Activity

City Distance Mag. Time & Date
Minimum magnitude displayed is 2.5.

Coastal Water Temperatures

Place Temperature

Stations

Nearby Weather Stations

Station Location Temp. Windchill Dew Point Humidity Wind Precip. Elev Updated Type
                   

Watches & Warnings

There are currently no watches in effect.